National Weather Service Raw Text Product

Displaying AFOS PIL: TAFDSM Received: 2018-01-12 11:09 UTC


053 
FTUS43 KDMX 121109 AAA
TAFDSM
TAF AMD
KDSM 121109Z 1211/1306 35012KT P6SM SKC
     FM121200 34011KT P6SM SKC
     FM130100 36010KT P6SM BKN080=